sensor_id;sensor_type;location;lat;lon;timestamp;temperature;humidity
32650;DHT22;19055;51.064;3.712;2022-07-10T00:01:09;17.30;89.30
32650;DHT22;19055;51.064;3.712;2022-07-10T00:03:34;17.30;89.50
32650;DHT22;19055;51.064;3.712;2022-07-10T00:06:00;17.30;89.80
32650;DHT22;19055;51.064;3.712;2022-07-10T00:08:26;17.20;90.00
32650;DHT22;19055;51.064;3.712;2022-07-10T00:10:52;17.20;90.10
32650;DHT22;19055;51.064;3.712;2022-07-10T00:13:18;17.20;90.30
32650;DHT22;19055;51.064;3.712;2022-07-10T00:15:43;17.20;90.50
32650;DHT22;19055;51.064;3.712;2022-07-10T00:18:09;17.10;90.60
32650;DHT22;19055;51.064;3.712;2022-07-10T00:20:35;17.10;90.60
32650;DHT22;19055;51.064;3.712;2022-07-10T00:23:01;17.10;90.80
32650;DHT22;19055;51.064;3.712;2022-07-10T00:25:27;17.10;90.90
32650;DHT22;19055;51.064;3.712;2022-07-10T00:27:53;17.00;91.00
32650;DHT22;19055;51.064;3.712;2022-07-10T00:30:19;17.00;91.10
32650;DHT22;19055;51.064;3.712;2022-07-10T00:32:45;17.00;91.20
32650;DHT22;19055;51.064;3.712;2022-07-10T00:35:10;17.00;91.40
32650;DHT22;19055;51.064;3.712;2022-07-10T00:37:36;16.90;91.40
32650;DHT22;19055;51.064;3.712;2022-07-10T00:40:03;16.90;91.60
32650;DHT22;19055;51.064;3.712;2022-07-10T00:42:30;16.90;91.60
32650;DHT22;19055;51.064;3.712;2022-07-10T00:44:56;16.90;92.00
32650;DHT22;19055;51.064;3.712;2022-07-10T00:47:22;16.80;91.70
32650;DHT22;19055;51.064;3.712;2022-07-10T00:49:48;16.80;91.70
32650;DHT22;19055;51.064;3.712;2022-07-10T00:52:15;16.80;91.90
32650;DHT22;19055;51.064;3.712;2022-07-10T00:54:44;16.80;92.00
32650;DHT22;19055;51.064;3.712;2022-07-10T00:57:12;16.80;92.00
32650;DHT22;19055;51.064;3.712;2022-07-10T00:59:38;16.70;91.90
32650;DHT22;19055;51.064;3.712;2022-07-10T01:02:04;16.70;92.00
32650;DHT22;19055;51.064;3.712;2022-07-10T01:04:31;16.70;92.10
32650;DHT22;19055;51.064;3.712;2022-07-10T01:06:58;16.70;92.10
32650;DHT22;19055;51.064;3.712;2022-07-10T01:09:24;16.70;92.10
32650;DHT22;19055;51.064;3.712;2022-07-10T01:11:50;16.70;92.10
32650;DHT22;19055;51.064;3.712;2022-07-10T01:14:16;16.70;92.20
32650;DHT22;19055;51.064;3.712;2022-07-10T01:16:43;16.70;92.20
32650;DHT22;19055;51.064;3.712;2022-07-10T01:19:09;16.70;92.30
32650;DHT22;19055;51.064;3.712;2022-07-10T01:21:36;16.70;92.30
32650;DHT22;19055;51.064;3.712;2022-07-10T01:24:07;16.70;92.20
32650;DHT22;19055;51.064;3.712;2022-07-10T01:26:34;16.70;92.20
32650;DHT22;19055;51.064;3.712;2022-07-10T01:29:04;16.70;92.20
32650;DHT22;19055;51.064;3.712;2022-07-10T01:31:30;16.70;92.30
32650;DHT22;19055;51.064;3.712;2022-07-10T01:33:58;16.60;92.30
32650;DHT22;19055;51.064;3.712;2022-07-10T01:36:24;16.60;92.30
32650;DHT22;19055;51.064;3.712;2022-07-10T01:38:54;16.60;92.40
32650;DHT22;19055;51.064;3.712;2022-07-10T01:41:21;16.60;92.40
32650;DHT22;19055;51.064;3.712;2022-07-10T01:43:46;16.60;92.40
32650;DHT22;19055;51.064;3.712;2022-07-10T01:46:14;16.60;92.50
32650;DHT22;19055;51.064;3.712;2022-07-10T01:48:40;16.50;92.60
32650;DHT22;19055;51.064;3.712;2022-07-10T01:51:07;16.50;92.70
32650;DHT22;19055;51.064;3.712;2022-07-10T01:53:33;16.50;92.70
32650;DHT22;19055;51.064;3.712;2022-07-10T01:56:05;16.40;92.70
32650;DHT22;19055;51.064;3.712;2022-07-10T01:58:31;16.40;92.80
32650;DHT22;19055;51.064;3.712;2022-07-10T02:00:57;16.40;92.90
32650;DHT22;19055;51.064;3.712;2022-07-10T02:03:23;16.40;93.00
32650;DHT22;19055;51.064;3.712;2022-07-10T02:06:07;16.30;93.10
32650;DHT22;19055;51.064;3.712;2022-07-10T02:08:33;16.30;93.20
32650;DHT22;19055;51.064;3.712;2022-07-10T02:10:59;16.30;93.30
32650;DHT22;19055;51.064;3.712;2022-07-10T02:13:25;16.30;93.30
32650;DHT22;19055;51.064;3.712;2022-07-10T02:15:54;16.30;93.40
32650;DHT22;19055;51.064;3.712;2022-07-10T02:18:20;16.30;93.50
32650;DHT22;19055;51.064;3.712;2022-07-10T02:20:46;16.20;93.50
32650;DHT22;19055;51.064;3.712;2022-07-10T02:23:12;16.20;93.60
32650;DHT22;19055;51.064;3.712;2022-07-10T02:25:38;16.20;93.60
32650;DHT22;19055;51.064;3.712;2022-07-10T02:28:04;16.20;93.70
32650;DHT22;19055;51.064;3.712;2022-07-10T02:30:30;16.20;93.80
32650;DHT22;19055;51.064;3.712;2022-07-10T02:32:56;16.20;93.80
32650;DHT22;19055;51.064;3.712;2022-07-10T02:35:22;16.20;93.90
32650;DHT22;19055;51.064;3.712;2022-07-10T02:37:48;16.20;93.90
32650;DHT22;19055;51.064;3.712;2022-07-10T02:40:14;16.20;93.90
32650;DHT22;19055;51.064;3.712;2022-07-10T02:42:40;16.10;94.00
32650;DHT22;19055;51.064;3.712;2022-07-10T02:45:07;16.10;94.00
32650;DHT22;19055;51.064;3.712;2022-07-10T02:47:33;16.10;94.10
32650;DHT22;19055;51.064;3.712;2022-07-10T02:49:59;16.10;94.20
32650;DHT22;19055;51.064;3.712;2022-07-10T02:52:25;16.10;94.30
32650;DHT22;19055;51.064;3.712;2022-07-10T02:54:51;16.10;94.30
32650;DHT22;19055;51.064;3.712;2022-07-10T02:57:17;16.00;94.40
32650;DHT22;19055;51.064;3.712;2022-07-10T02:59:42;16.00;94.50
32650;DHT22;19055;51.064;3.712;2022-07-10T03:02:08;16.00;94.60
32650;DHT22;19055;51.064;3.712;2022-07-10T03:04:34;16.00;94.60
32650;DHT22;19055;51.064;3.712;2022-07-10T03:07:00;16.00;94.70
32650;DHT22;19055;51.064;3.712;2022-07-10T03:09:26;15.90;94.80
32650;DHT22;19055;51.064;3.712;2022-07-10T03:11:52;15.90;94.80
32650;DHT22;19055;51.064;3.712;2022-07-10T03:14:18;15.90;94.90
32650;DHT22;19055;51.064;3.712;2022-07-10T03:16:44;15.90;94.90
32650;DHT22;19055;51.064;3.712;2022-07-10T03:19:10;15.90;95.00
32650;DHT22;19055;51.064;3.712;2022-07-10T03:21:36;15.80;95.10
32650;DHT22;19055;51.064;3.712;2022-07-10T03:24:02;15.80;95.20
32650;DHT22;19055;51.064;3.712;2022-07-10T03:26:27;15.80;95.20
32650;DHT22;19055;51.064;3.712;2022-07-10T03:28:58;15.80;95.20
32650;DHT22;19055;51.064;3.712;2022-07-10T03:31:23;15.80;95.20
32650;DHT22;19055;51.064;3.712;2022-07-10T03:33:49;15.80;95.30
32650;DHT22;19055;51.064;3.712;2022-07-10T03:36:15;15.70;95.30
32650;DHT22;19055;51.064;3.712;2022-07-10T03:38:41;15.80;95.40
32650;DHT22;19055;51.064;3.712;2022-07-10T03:41:07;15.80;95.40
32650;DHT22;19055;51.064;3.712;2022-07-10T03:43:32;15.70;95.50
32650;DHT22;19055;51.064;3.712;2022-07-10T03:45:58;15.70;95.60
32650;DHT22;19055;51.064;3.712;2022-07-10T03:48:24;15.70;95.50
32650;DHT22;19055;51.064;3.712;2022-07-10T03:50:53;15.70;95.50
32650;DHT22;19055;51.064;3.712;2022-07-10T03:53:19;15.70;95.50
32650;DHT22;19055;51.064;3.712;2022-07-10T03:55:45;15.70;95.50
32650;DHT22;19055;51.064;3.712;2022-07-10T03:58:11;15.80;95.60
32650;DHT22;19055;51.064;3.712;2022-07-10T04:00:37;15.70;95.50
32650;DHT22;19055;51.064;3.712;2022-07-10T04:03:05;15.70;95.50
32650;DHT22;19055;51.064;3.712;2022-07-10T04:05:31;15.80;95.60
32650;DHT22;19055;51.064;3.712;2022-07-10T04:07:58;15.80;95.50
32650;DHT22;19055;51.064;3.712;2022-07-10T04:10:25;15.80;95.60
32650;DHT22;19055;51.064;3.712;2022-07-10T04:12:51;15.80;95.60
32650;DHT22;19055;51.064;3.712;2022-07-10T04:15:18;15.80;95.60
32650;DHT22;19055;51.064;3.712;2022-07-10T04:17:43;15.80;95.40
32650;DHT22;19055;51.064;3.712;2022-07-10T04:20:09;15.80;95.50
32650;DHT22;19055;51.064;3.712;2022-07-10T04:22:35;15.80;95.50
32650;DHT22;19055;51.064;3.712;2022-07-10T04:25:02;15.90;95.40
32650;DHT22;19055;51.064;3.712;2022-07-10T04:27:28;15.90;95.30
32650;DHT22;19055;51.064;3.712;2022-07-10T04:29:54;16.00;95.20
32650;DHT22;19055;51.064;3.712;2022-07-10T04:32:21;16.00;95.20
32650;DHT22;19055;51.064;3.712;2022-07-10T04:34:47;16.10;95.20
32650;DHT22;19055;51.064;3.712;2022-07-10T04:37:12;16.10;95.10
32650;DHT22;19055;51.064;3.712;2022-07-10T04:39:39;16.10;95.00
32650;DHT22;19055;51.064;3.712;2022-07-10T04:42:05;16.20;95.00
32650;DHT22;19055;51.064;3.712;2022-07-10T04:44:31;16.20;94.90
32650;DHT22;19055;51.064;3.712;2022-07-10T04:46:57;16.20;94.80
32650;DHT22;19055;51.064;3.712;2022-07-10T04:49:24;16.20;94.70
32650;DHT22;19055;51.064;3.712;2022-07-10T04:51:50;16.30;94.70
32650;DHT22;19055;51.064;3.712;2022-07-10T04:54:16;16.30;94.60
32650;DHT22;19055;51.064;3.712;2022-07-10T04:56:42;16.40;94.50
32650;DHT22;19055;51.064;3.712;2022-07-10T04:59:08;16.40;94.40
32650;DHT22;19055;51.064;3.712;2022-07-10T05:01:35;16.50;94.20
32650;DHT22;19055;51.064;3.712;2022-07-10T05:04:01;16.50;94.10
32650;DHT22;19055;51.064;3.712;2022-07-10T05:06:26;16.60;93.90
32650;DHT22;19055;51.064;3.712;2022-07-10T05:08:52;16.70;93.80
32650;DHT22;19055;51.064;3.712;2022-07-10T05:11:19;16.80;93.50
32650;DHT22;19055;51.064;3.712;2022-07-10T05:13:45;16.90;93.40
32650;DHT22;19055;51.064;3.712;2022-07-10T05:16:14;17.10;93.20
32650;DHT22;19055;51.064;3.712;2022-07-10T05:18:40;17.40;93.00
32650;DHT22;19055;51.064;3.712;2022-07-10T05:21:06;18.20;92.20
32650;DHT22;19055;51.064;3.712;2022-07-10T05:23:32;19.50;90.70
32650;DHT22;19055;51.064;3.712;2022-07-10T05:25:58;21.30;83.80
32650;DHT22;19055;51.064;3.712;2022-07-10T05:28:24;23.10;76.50
32650;DHT22;19055;51.064;3.712;2022-07-10T05:30:49;24.90;69.10
32650;DHT22;19055;51.064;3.712;2022-07-10T05:33:16;26.60;59.60
32650;DHT22;19055;51.064;3.712;2022-07-10T05:35:41;26.70;55.80
32650;DHT22;19055;51.064;3.712;2022-07-10T05:38:07;26.80;55.20
32650;DHT22;19055;51.064;3.712;2022-07-10T05:40:33;28.30;53.80
32650;DHT22;19055;51.064;3.712;2022-07-10T05:42:59;30.00;48.50
32650;DHT22;19055;51.064;3.712;2022-07-10T05:45:25;31.70;45.10
32650;DHT22;19055;51.064;3.712;2022-07-10T05:47:51;32.90;40.50
32650;DHT22;19055;51.064;3.712;2022-07-10T05:50:17;34.00;38.90
32650;DHT22;19055;51.064;3.712;2022-07-10T05:52:43;35.30;36.90
32650;DHT22;19055;51.064;3.712;2022-07-10T05:55:09;36.20;34.80
32650;DHT22;19055;51.064;3.712;2022-07-10T05:57:35;37.00;32.50
32650;DHT22;19055;51.064;3.712;2022-07-10T06:00:03;37.80;31.00
32650;DHT22;19055;51.064;3.712;2022-07-10T06:02:37;37.90;30.20
32650;DHT22;19055;51.064;3.712;2022-07-10T06:05:03;38.30;30.00
32650;DHT22;19055;51.064;3.712;2022-07-10T06:07:29;38.40;29.70
32650;DHT22;19055;51.064;3.712;2022-07-10T06:09:55;38.10;29.50
32650;DHT22;19055;51.064;3.712;2022-07-10T06:12:21;37.90;29.70
32650;DHT22;19055;51.064;3.712;2022-07-10T06:14:47;37.70;29.70
32650;DHT22;19055;51.064;3.712;2022-07-10T06:17:13;37.50;29.50
32650;DHT22;19055;51.064;3.712;2022-07-10T06:19:39;37.60;29.60
32650;DHT22;19055;51.064;3.712;2022-07-10T06:22:04;38.00;29.20
32650;DHT22;19055;51.064;3.712;2022-07-10T06:24:48;38.50;28.80
32650;DHT22;19055;51.064;3.712;2022-07-10T06:27:14;39.10;28.00
32650;DHT22;19055;51.064;3.712;2022-07-10T06:29:40;39.40;27.80
32650;DHT22;19055;51.064;3.712;2022-07-10T06:32:06;39.80;27.30
32650;DHT22;19055;51.064;3.712;2022-07-10T06:34:32;40.00;27.20
32650;DHT22;19055;51.064;3.712;2022-07-10T06:36:58;40.20;26.90
32650;DHT22;19055;51.064;3.712;2022-07-10T06:39:24;39.10;27.30
32650;DHT22;19055;51.064;3.712;2022-07-10T06:41:50;38.60;27.60
32650;DHT22;19055;51.064;3.712;2022-07-10T06:44:15;38.00;28.30
32650;DHT22;19055;51.064;3.712;2022-07-10T06:46:41;37.50;28.90
32650;DHT22;19055;51.064;3.712;2022-07-10T06:49:07;37.90;29.00
32650;DHT22;19055;51.064;3.712;2022-07-10T06:51:34;39.00;28.00
32650;DHT22;19055;51.064;3.712;2022-07-10T06:54:00;39.20;27.30
32650;DHT22;19055;51.064;3.712;2022-07-10T06:56:26;39.30;27.30
32650;DHT22;19055;51.064;3.712;2022-07-10T06:58:52;39.50;27.30
32650;DHT22;19055;51.064;3.712;2022-07-10T07:01:18;38.80;27.80
32650;DHT22;19055;51.064;3.712;2022-07-10T07:03:44;38.00;28.60
32650;DHT22;19055;51.064;3.712;2022-07-10T07:06:09;37.70;28.90
32650;DHT22;19055;51.064;3.712;2022-07-10T07:08:35;37.60;29.10
32650;DHT22;19055;51.064;3.712;2022-07-10T07:11:02;37.90;29.50
32650;DHT22;19055;51.064;3.712;2022-07-10T07:13:28;37.50;29.10
32650;DHT22;19055;51.064;3.712;2022-07-10T07:15:54;37.20;29.40
32650;DHT22;19055;51.064;3.712;2022-07-10T07:18:29;37.10;29.50
32650;DHT22;19055;51.064;3.712;2022-07-10T07:20:59;36.70;30.00
32650;DHT22;19055;51.064;3.712;2022-07-10T07:23:43;37.00;29.70
32650;DHT22;19055;51.064;3.712;2022-07-10T07:26:09;37.50;29.00
32650;DHT22;19055;51.064;3.712;2022-07-10T07:28:35;38.20;28.80
32650;DHT22;19055;51.064;3.712;2022-07-10T07:31:01;38.90;28.00
32650;DHT22;19055;51.064;3.712;2022-07-10T07:33:26;38.90;27.80
32650;DHT22;19055;51.064;3.712;2022-07-10T07:35:52;39.90;26.80
32650;DHT22;19055;51.064;3.712;2022-07-10T07:38:18;40.90;26.10
32650;DHT22;19055;51.064;3.712;2022-07-10T07:40:44;41.10;25.60
32650;DHT22;19055;51.064;3.712;2022-07-10T07:43:10;41.30;25.40
32650;DHT22;19055;51.064;3.712;2022-07-10T07:45:37;41.80;25.30
32650;DHT22;19055;51.064;3.712;2022-07-10T07:48:03;42.80;24.80
32650;DHT22;19055;51.064;3.712;2022-07-10T07:50:31;42.80;24.50
32650;DHT22;19055;51.064;3.712;2022-07-10T07:52:58;42.00;24.60
32650;DHT22;19055;51.064;3.712;2022-07-10T07:55:24;40.90;25.20
32650;DHT22;19055;51.064;3.712;2022-07-10T07:57:54;40.20;26.60
32650;DHT22;19055;51.064;3.712;2022-07-10T08:00:25;40.50;26.40
32650;DHT22;19055;51.064;3.712;2022-07-10T08:02:52;40.50;26.30
32650;DHT22;19055;51.064;3.712;2022-07-10T08:05:19;40.10;26.50
32650;DHT22;19055;51.064;3.712;2022-07-10T08:07:48;41.10;25.70
32650;DHT22;19055;51.064;3.712;2022-07-10T08:10:17;40.70;26.00
32650;DHT22;19055;51.064;3.712;2022-07-10T08:12:43;40.30;26.20
32650;DHT22;19055;51.064;3.712;2022-07-10T08:15:12;39.30;27.20
32650;DHT22;19055;51.064;3.712;2022-07-10T08:17:38;39.00;27.30
32650;DHT22;19055;51.064;3.712;2022-07-10T08:20:07;38.00;28.20
32650;DHT22;19055;51.064;3.712;2022-07-10T08:22:33;37.40;28.90
32650;DHT22;19055;51.064;3.712;2022-07-10T08:24:59;37.30;29.00
32650;DHT22;19055;51.064;3.712;2022-07-10T08:27:25;36.10;29.70
32650;DHT22;19055;51.064;3.712;2022-07-10T08:29:51;35.00;31.00
32650;DHT22;19055;51.064;3.712;2022-07-10T08:32:17;34.70;31.80
32650;DHT22;19055;51.064;3.712;2022-07-10T08:34:43;34.10;33.30
32650;DHT22;19055;51.064;3.712;2022-07-10T08:37:09;33.60;34.10
32650;DHT22;19055;51.064;3.712;2022-07-10T08:39:35;33.10;35.00
32650;DHT22;19055;51.064;3.712;2022-07-10T08:42:02;32.80;35.40
32650;DHT22;19055;51.064;3.712;2022-07-10T08:44:29;32.70;35.40
32650;DHT22;19055;51.064;3.712;2022-07-10T08:46:56;32.60;35.80
32650;DHT22;19055;51.064;3.712;2022-07-10T08:49:31;32.30;36.50
32650;DHT22;19055;51.064;3.712;2022-07-10T08:52:05;32.00;37.00
32650;DHT22;19055;51.064;3.712;2022-07-10T08:54:32;32.50;36.90
32650;DHT22;19055;51.064;3.712;2022-07-10T08:57:00;33.20;35.50
32650;DHT22;19055;51.064;3.712;2022-07-10T08:59:27;33.50;34.60
32650;DHT22;19055;51.064;3.712;2022-07-10T09:01:53;33.60;34.60
32650;DHT22;19055;51.064;3.712;2022-07-10T09:04:24;33.60;34.40
32650;DHT22;19055;51.064;3.712;2022-07-10T09:06:52;33.00;35.40
32650;DHT22;19055;51.064;3.712;2022-07-10T09:09:19;32.30;36.60
32650;DHT22;19055;51.064;3.712;2022-07-10T09:11:45;31.70;37.40
32650;DHT22;19055;51.064;3.712;2022-07-10T09:14:14;31.00;39.00
32650;DHT22;19055;51.064;3.712;2022-07-10T09:16:42;30.50;39.80
32650;DHT22;19055;51.064;3.712;2022-07-10T09:19:26;30.40;40.20
32650;DHT22;19055;51.064;3.712;2022-07-10T09:21:54;30.30;40.10
32650;DHT22;19055;51.064;3.712;2022-07-10T09:24:21;30.40;40.40
32650;DHT22;19055;51.064;3.712;2022-07-10T09:27:08;30.50;40.20
32650;DHT22;19055;51.064;3.712;2022-07-10T09:29:54;30.70;39.70
32650;DHT22;19055;51.064;3.712;2022-07-10T09:32:23;30.90;39.50
32650;DHT22;19055;51.064;3.712;2022-07-10T09:34:52;31.10;39.10
32650;DHT22;19055;51.064;3.712;2022-07-10T09:37:41;31.10;39.40
32650;DHT22;19055;51.064;3.712;2022-07-10T09:40:08;31.40;38.50
32650;DHT22;19055;51.064;3.712;2022-07-10T09:42:38;31.60;38.00
32650;DHT22;19055;51.064;3.712;2022-07-10T09:45:15;30.90;39.10
32650;DHT22;19055;51.064;3.712;2022-07-10T09:47:59;30.10;40.90
32650;DHT22;19055;51.064;3.712;2022-07-10T09:50:35;29.70;42.20
32650;DHT22;19055;51.064;3.712;2022-07-10T09:55:30;29.50;42.00
32650;DHT22;19055;51.064;3.712;2022-07-10T09:58:04;29.50;41.90
32650;DHT22;19055;51.064;3.712;2022-07-10T10:00:32;29.40;41.60
32650;DHT22;19055;51.064;3.712;2022-07-10T10:03:04;29.70;41.10
32650;DHT22;19055;51.064;3.712;2022-07-10T10:05:42;30.10;40.50
32650;DHT22;19055;51.064;3.712;2022-07-10T10:10:47;30.90;39.20
32650;DHT22;19055;51.064;3.712;2022-07-10T10:13:22;30.90;39.50
32650;DHT22;19055;51.064;3.712;2022-07-10T10:15:49;31.10;39.80
32650;DHT22;19055;51.064;3.712;2022-07-10T10:18:23;31.50;39.80
32650;DHT22;19055;51.064;3.712;2022-07-10T10:20:52;31.80;39.10
32650;DHT22;19055;51.064;3.712;2022-07-10T10:23:20;32.50;37.60
32650;DHT22;19055;51.064;3.712;2022-07-10T10:25:48;32.50;36.90
32650;DHT22;19055;51.064;3.712;2022-07-10T10:28:15;32.10;37.50
32650;DHT22;19055;51.064;3.712;2022-07-10T10:30:43;31.50;38.20
32650;DHT22;19055;51.064;3.712;2022-07-10T10:35:57;31.20;39.50
32650;DHT22;19055;51.064;3.712;2022-07-10T10:38:23;31.00;39.50
32650;DHT22;19055;51.064;3.712;2022-07-10T10:40:49;31.60;38.80
32650;DHT22;19055;51.064;3.712;2022-07-10T10:43:23;32.20;37.20
32650;DHT22;19055;51.064;3.712;2022-07-10T10:45:50;31.90;36.60
32650;DHT22;19055;51.064;3.712;2022-07-10T10:48:17;30.50;39.80
32650;DHT22;19055;51.064;3.712;2022-07-10T10:50:53;30.80;40.10
32650;DHT22;19055;51.064;3.712;2022-07-10T10:53:26;31.30;39.20
32650;DHT22;19055;51.064;3.712;2022-07-10T10:58:45;31.20;38.40
32650;DHT22;19055;51.064;3.712;2022-07-10T11:01:28;30.50;39.30
32650;DHT22;19055;51.064;3.712;2022-07-10T11:09:25;30.00;41.30
32650;DHT22;19055;51.064;3.712;2022-07-10T11:12:08;30.30;41.30
32650;DHT22;19055;51.064;3.712;2022-07-10T11:14:44;30.00;41.40
32650;DHT22;19055;51.064;3.712;2022-07-10T11:17:10;29.80;42.10
32650;DHT22;19055;51.064;3.712;2022-07-10T11:19:36;29.90;41.90
32650;DHT22;19055;51.064;3.712;2022-07-10T11:22:35;30.00;41.70
32650;DHT22;19055;51.064;3.712;2022-07-10T11:30:27;29.90;42.00
32650;DHT22;19055;51.064;3.712;2022-07-10T11:32:53;29.80;42.30
32650;DHT22;19055;51.064;3.712;2022-07-10T11:35:18;29.90;42.30
32650;DHT22;19055;51.064;3.712;2022-07-10T11:37:52;30.30;42.00
32650;DHT22;19055;51.064;3.712;2022-07-10T11:40:19;30.30;41.80
32650;DHT22;19055;51.064;3.712;2022-07-10T11:42:53;30.40;40.70
32650;DHT22;19055;51.064;3.712;2022-07-10T11:45:27;30.10;41.20
32650;DHT22;19055;51.064;3.712;2022-07-10T11:47:54;30.10;41.30
32650;DHT22;19055;51.064;3.712;2022-07-10T11:50:20;29.90;41.70
32650;DHT22;19055;51.064;3.712;2022-07-10T11:52:46;29.60;41.80
32650;DHT22;19055;51.064;3.712;2022-07-10T11:55:20;29.40;42.60
32650;DHT22;19055;51.064;3.712;2022-07-10T11:57:47;29.30;42.80
32650;DHT22;19055;51.064;3.712;2022-07-10T12:00:23;29.70;42.10
32650;DHT22;19055;51.064;3.712;2022-07-10T12:02:50;29.70;42.40
32650;DHT22;19055;51.064;3.712;2022-07-10T12:05:32;29.50;42.40
32650;DHT22;19055;51.064;3.712;2022-07-10T12:07:59;29.40;43.00
32650;DHT22;19055;51.064;3.712;2022-07-10T12:10:29;29.40;43.30
32650;DHT22;19055;51.064;3.712;2022-07-10T12:13:05;29.40;43.40
32650;DHT22;19055;51.064;3.712;2022-07-10T12:15:49;29.60;43.70
32650;DHT22;19055;51.064;3.712;2022-07-10T12:18:20;29.60;43.20
32650;DHT22;19055;51.064;3.712;2022-07-10T12:20:47;29.50;43.70
32650;DHT22;19055;51.064;3.712;2022-07-10T12:23:15;29.30;44.10
32650;DHT22;19055;51.064;3.712;2022-07-10T12:25:43;29.10;44.80
32650;DHT22;19055;51.064;3.712;2022-07-10T12:28:09;28.80;45.10
32650;DHT22;19055;51.064;3.712;2022-07-10T12:30:40;28.70;45.50
32650;DHT22;19055;51.064;3.712;2022-07-10T12:33:14;28.80;45.00
32650;DHT22;19055;51.064;3.712;2022-07-10T12:35:55;28.90;44.80
32650;DHT22;19055;51.064;3.712;2022-07-10T12:38:26;29.00;44.50
32650;DHT22;19055;51.064;3.712;2022-07-10T12:41:13;28.70;45.00
32650;DHT22;19055;51.064;3.712;2022-07-10T12:43:40;28.50;46.00
32650;DHT22;19055;51.064;3.712;2022-07-10T12:48:38;27.70;47.30
32650;DHT22;19055;51.064;3.712;2022-07-10T12:51:26;27.50;48.00
32650;DHT22;19055;51.064;3.712;2022-07-10T12:53:52;27.60;47.80
32650;DHT22;19055;51.064;3.712;2022-07-10T12:56:38;27.40;47.80
32650;DHT22;19055;51.064;3.712;2022-07-10T12:59:13;27.20;48.50
32650;DHT22;19055;51.064;3.712;2022-07-10T13:01:45;27.00;49.00
32650;DHT22;19055;51.064;3.712;2022-07-10T13:04:11;26.90;49.20
32650;DHT22;19055;51.064;3.712;2022-07-10T13:06:38;26.80;49.80
32650;DHT22;19055;51.064;3.712;2022-07-10T13:09:25;26.60;50.00
32650;DHT22;19055;51.064;3.712;2022-07-10T13:11:52;26.40;50.40
32650;DHT22;19055;51.064;3.712;2022-07-10T13:14:19;26.40;49.90
32650;DHT22;19055;51.064;3.712;2022-07-10T13:16:45;26.30;49.80
32650;DHT22;19055;51.064;3.712;2022-07-10T13:19:10;26.30;50.70
32650;DHT22;19055;51.064;3.712;2022-07-10T13:21:36;26.30;50.60
32650;DHT22;19055;51.064;3.712;2022-07-10T13:24:03;26.30;50.70
32650;DHT22;19055;51.064;3.712;2022-07-10T13:26:30;26.40;50.30
32650;DHT22;19055;51.064;3.712;2022-07-10T13:28:57;26.50;50.20
32650;DHT22;19055;51.064;3.712;2022-07-10T13:31:23;26.40;50.30
32650;DHT22;19055;51.064;3.712;2022-07-10T13:33:50;26.30;50.40
32650;DHT22;19055;51.064;3.712;2022-07-10T13:36:15;26.20;50.60
32650;DHT22;19055;51.064;3.712;2022-07-10T13:38:41;26.30;50.60
32650;DHT22;19055;51.064;3.712;2022-07-10T13:41:08;26.10;50.80
32650;DHT22;19055;51.064;3.712;2022-07-10T13:43:34;26.20;50.50
32650;DHT22;19055;51.064;3.712;2022-07-10T13:46:01;26.20;50.90
32650;DHT22;19055;51.064;3.712;2022-07-10T13:48:28;26.20;50.50
32650;DHT22;19055;51.064;3.712;2022-07-10T13:50:54;26.20;50.40
32650;DHT22;19055;51.064;3.712;2022-07-10T13:53:20;26.20;50.90
32650;DHT22;19055;51.064;3.712;2022-07-10T13:55:47;26.20;51.60
32650;DHT22;19055;51.064;3.712;2022-07-10T13:58:14;26.20;51.10
32650;DHT22;19055;51.064;3.712;2022-07-10T14:00:40;26.10;51.00
32650;DHT22;19055;51.064;3.712;2022-07-10T14:03:06;26.20;51.00
32650;DHT22;19055;51.064;3.712;2022-07-10T14:05:33;26.10;50.80
32650;DHT22;19055;51.064;3.712;2022-07-10T14:07:59;26.10;51.00
32650;DHT22;19055;51.064;3.712;2022-07-10T14:10:25;26.10;50.40
32650;DHT22;19055;51.064;3.712;2022-07-10T14:12:53;26.00;51.80
32650;DHT22;19055;51.064;3.712;2022-07-10T14:15:19;25.90;51.30
32650;DHT22;19055;51.064;3.712;2022-07-10T14:17:45;25.90;51.00
32650;DHT22;19055;51.064;3.712;2022-07-10T14:20:11;25.90;51.30
32650;DHT22;19055;51.064;3.712;2022-07-10T14:22:37;25.90;51.10
32650;DHT22;19055;51.064;3.712;2022-07-10T14:25:05;25.90;51.00
32650;DHT22;19055;51.064;3.712;2022-07-10T14:27:31;25.90;50.70
32650;DHT22;19055;51.064;3.712;2022-07-10T14:29:58;25.90;50.50
32650;DHT22;19055;51.064;3.712;2022-07-10T14:32:24;25.80;50.60
32650;DHT22;19055;51.064;3.712;2022-07-10T14:34:50;25.70;50.40
32650;DHT22;19055;51.064;3.712;2022-07-10T14:37:16;25.70;50.20
32650;DHT22;19055;51.064;3.712;2022-07-10T14:39:42;25.60;50.10
32650;DHT22;19055;51.064;3.712;2022-07-10T14:42:08;25.50;50.80
32650;DHT22;19055;51.064;3.712;2022-07-10T14:44:35;25.60;50.80
32650;DHT22;19055;51.064;3.712;2022-07-10T14:47:03;25.70;51.10
32650;DHT22;19055;51.064;3.712;2022-07-10T14:49:29;25.60;50.00
32650;DHT22;19055;51.064;3.712;2022-07-10T14:51:55;25.60;49.80
32650;DHT22;19055;51.064;3.712;2022-07-10T14:54:21;25.60;50.50
32650;DHT22;19055;51.064;3.712;2022-07-10T14:56:47;25.60;50.30
32650;DHT22;19055;51.064;3.712;2022-07-10T14:59:13;25.70;50.60
32650;DHT22;19055;51.064;3.712;2022-07-10T15:01:39;25.70;50.20
32650;DHT22;19055;51.064;3.712;2022-07-10T15:04:05;25.60;50.30
32650;DHT22;19055;51.064;3.712;2022-07-10T15:06:31;25.70;50.30
32650;DHT22;19055;51.064;3.712;2022-07-10T15:08:57;25.70;49.90
32650;DHT22;19055;51.064;3.712;2022-07-10T15:11:23;25.70;50.00
32650;DHT22;19055;51.064;3.712;2022-07-10T15:13:52;25.60;50.20
32650;DHT22;19055;51.064;3.712;2022-07-10T15:16:27;25.70;50.40
32650;DHT22;19055;51.064;3.712;2022-07-10T15:18:53;25.70;49.80
32650;DHT22;19055;51.064;3.712;2022-07-10T15:21:19;25.70;50.10
32650;DHT22;19055;51.064;3.712;2022-07-10T15:23:46;25.60;49.80
32650;DHT22;19055;51.064;3.712;2022-07-10T15:26:13;25.60;49.80
32650;DHT22;19055;51.064;3.712;2022-07-10T15:28:39;25.60;49.90
32650;DHT22;19055;51.064;3.712;2022-07-10T15:31:04;25.60;49.40
32650;DHT22;19055;51.064;3.712;2022-07-10T15:33:32;25.50;49.60
32650;DHT22;19055;51.064;3.712;2022-07-10T15:35:59;25.30;49.80
32650;DHT22;19055;51.064;3.712;2022-07-10T15:38:25;25.40;50.10
32650;DHT22;19055;51.064;3.712;2022-07-10T15:40:51;25.30;50.50
32650;DHT22;19055;51.064;3.712;2022-07-10T15:43:16;25.30;50.00
32650;DHT22;19055;51.064;3.712;2022-07-10T15:45:43;25.30;50.10
32650;DHT22;19055;51.064;3.712;2022-07-10T15:48:08;25.30;50.00
32650;DHT22;19055;51.064;3.712;2022-07-10T15:50:41;25.30;50.10
32650;DHT22;19055;51.064;3.712;2022-07-10T15:53:07;25.40;49.90
32650;DHT22;19055;51.064;3.712;2022-07-10T15:55:33;25.40;50.30
32650;DHT22;19055;51.064;3.712;2022-07-10T15:57:58;25.40;50.60